Flight Track Log - Related Links

Times and Time Zones

All times are in EDT time to prevent confusion due to time zone crossing. See the SWA3317 flight status page for this flight to view local times or setup timezone preferences in your user account.

Time Position Orientation Groundspeed Altitude Reporting Facility
EDT Latitude Longitude Course Direction KTS MPH feet Rate Location/Type
Sat 10:55:37 PM 33.9356 -118.5497 263° West 233 268 5,700  Level Los Angeles Center
Sat 10:56:39 PM 33.9264 -118.6444 263° West 264 304 10,500 3,561 Climbing Los Angeles Center
Sat 10:57:40 PM 33.9228 -118.7336 267° West 267 307 13,000 1,525 Climbing Los Angeles Center
Sat 10:58:41 PM 33.9186 -118.8164 267° West 286 329 13,600 2,311 Climbing Los Angeles Center
Sat 10:59:42 PM 33.9667 -118.9375 296° West 347 399 17,700 3,492 Climbing Los Angeles Center
Sat 11:00:43 PM 34.0264 -119.0283 308° West 347 399 20,700 2,459 Climbing Los Angeles Center
Sat 11:01:44 PM 34.0936 -119.1306 308° West 388 447 22,700 2,146 Climbing Los Angeles Center
Sat 11:02:46 PM 34.1622 -119.2372 308° West 401 461 25,100 2,244 Climbing Los Angeles Center
Sat 11:03:47 PM 34.2331 -119.3475 308° West 413 475 27,300 2,213 Climbing Los Angeles Center
Sat 11:04:48 PM 34.3144 -119.4497 314° West 424 488 29,600 2,410 Climbing Los Angeles Center
Sat 11:05:49 PM 34.4117 -119.5369 324° Northwest 432 497 32,200 2,115 Climbing Los Angeles Center
Sat 11:06:50 PM 34.5028 -119.6231 322° Northwest 420 483 33,900 1,672 Climbing Los Angeles Center
Sat 11:07:51 PM 34.5964 -119.7094 323° Northwest 422 486 35,600 1,820 Climbing Los Angeles Center
Sat 11:08:52 PM 34.6919 -119.7939 324° Northwest 419 482 37,600 1,171 Climbing Los Angeles Center
Sat 11:09:54 PM 34.7808 -119.8767 323° Northwest 406 467 38,000 195 Climbing Los Angeles Center
Sat 11:10:55 PM 34.8689 -119.9589 323° Northwest 402 463 38,000  Level Los Angeles Center
Sat 11:11:56 PM 34.9750 -120.0567 323° Northwest 400 460 38,000  Level Los Angeles Center
Sat 11:12:57 PM 35.0597 -120.1347 323° Northwest 400 460 38,000  Level Los Angeles Center
Sat 11:13:58 PM 35.1497 -120.2186 323° Northwest 410 472 38,000  Level Los Angeles Center
Sat 11:14:59 PM 35.2389 -120.3025 322° Northwest 411 473 38,000  Level Los Angeles Center
Sat 11:16:00 PM 35.3303 -120.3886 322° Northwest 416 479 38,000  Level Los Angeles Center
Sat 11:17:01 PM 35.4200 -120.4747 322° Northwest 415 478 38,000  Level Los Angeles Center
Sat 11:18:02 PM 35.5094 -120.5597 322° Northwest 410 472 38,000  Level Los Angeles Center
Sat 11:19:04 PM 35.5997 -120.6461 322° Northwest 413 475 38,000  Level Los Angeles Center
Sat 11:19:51 PM 35.6867 -120.7278 323° Northwest 411 473 38,000  Level Oakland Center
Sat 11:20:52 PM 35.7767 -120.8142 322° Northwest 410 472 38,000 -992 Level Oakland Center
Sat 11:21:52 PM 35.8658 -120.8986 323° Northwest 406 467 36,000 -2,430 Descending Oakland Center
Sat 11:22:53 PM 35.9556 -120.9844 322° Northwest 407 468 33,100 -2,852 Descending Oakland Center
Sat 11:23:54 PM 36.0478 -121.0689 323° Northwest 411 473 30,200 -2,459 Descending Oakland Center
Sat 11:24:55 PM 36.1408 -121.1478 326° Northwest 408 470 28,100 -2,262 Descending Oakland Center
Sat 11:25:56 PM 36.2281 -121.2211 326° Northwest 386 444 25,600 -2,281 Descending Oakland Center
Sat 11:26:56 PM 36.3133 -121.2961 325° Northwest 377 434 23,500 -1,983 Descending Oakland Center
Sat 11:27:57 PM 36.3939 -121.3669 325° Northwest 361 415 21,600 -1,918 Descending Oakland Center
Sat 11:28:58 PM 36.4683 -121.4328 325° Northwest 332 382 19,600 -2,281 Descending Oakland Center
Sat 11:29:58 PM 36.5442 -121.4944 327° Northwest 326 375 17,000 -2,281 Descending Oakland Center
Sat 11:30:59 PM 36.6367 -121.5228 346° North 331 381 15,000 -1,623 Descending Oakland Center
Sat 11:32:00 PM 36.7158 -121.5508 344° North 302 348 13,700 -1,934 Descending Oakland Center
Sat 11:33:00 PM 36.7953 -121.5814 343° North 297 342 11,100 -1,835 Descending Oakland Center
Sat 11:34:01 PM 36.8822 -121.6122 344° North 307 353 10,000 -1,180 Descending Oakland Center
Sat 11:35:02 PM 36.9525 -121.6386 343° North 270 311 8,700 -1,279 Descending Oakland Center
Sat 11:36:03 PM 37.0217 -121.6633 344° North 261 300 7,400 -1,388 Descending Oakland Center
Sat 11:37:03 PM 37.1036 -121.6922 344° North 256 295 5,900 -1,327 Descending Oakland Center
Sat 11:37:47 PM 37.1500 -121.7167 337° Northwest 244 281 5,100 -1,154 Descending Northern Cal TRACON
Sat 11:38:47 PM 37.2000 -121.7500 332° Northwest 226 260 3,900 -1,200 Descending Northern Cal TRACON
Sat 11:39:47 PM 37.2500 -121.8000 321° Northwest 208 239 2,700 -1,000 Descending Northern Cal TRACON
Sat 11:40:47 PM 37.2833 -121.8500 310° West 183 211 1,900 -800 Descending Northern Cal TRACON
Sat 11:41:47 PM 37.3167 -121.8833 322° Northwest 139 160 1,100 -750 Descending Northern Cal TRACON
Sat 11:42:47 PM 37.3500 -121.9167 322° Northwest 130 150 400 -700 Descending Northern Cal TRACON
Sat 11:45:00 PM 37.3627 -121.9291 North  Level Estimated

Login

Don't have an account? Register now (free) for customized features, flight alerts, and more!